Atlanticbeach, North Carolina
Current Conditions -  °F | °C
As of 6:58 PM on Monday 22 Dec 2014 (Local Time) from KMRH Reporting Station
Haze Haze  
Wind Chill: 10°   Ceiling: 200
Heat Index: 10°   Visibility: 4mi
Dew Point:   Wind: 8mph
Humidity: 96%   Direction: 330°NNW
Pressure: 30.01"   Gusts: NA
Location:  34.6984°N, 76.7775°W
Report Text: KMRH 222358Z AUTO 33007KT 4SM BR OVC002 10/09 A3001 RMK AO2 SLP161 60001 I1000 I6/// T01000094 10106 20100 53005 TSNO
Loading
Personal Weather Stations






























Interactive Weather Map New forecast layout! Learn more

10-Day Weather Forecast

Advertisements
Track Severe Weather on mobile